Time;durP1;ratioP1;P1;durP2;ratioP2;P2;SDS_P1;SDS_P2;PMS_P1;PMS_P2;Temp;Humidity;BMP_temperature;BMP_pressure;BME280_temperature;BME280_humidity;BME280_pressure;Samples;Min_cycle;Max_cycle;Signal;HPM_P1;HPM_P2
2023/03/15 00:01:57;;;;;;;;;;;;;;;4.82;60.25;98594.09;5070468;28;19939;-72
2023/03/15 00:04:23;;;;;;;;;;;;;;;4.63;60.89;98597.06;5073046;28;20381;-70
2023/03/15 00:06:49;;;;;;;;;;;;;;;4.56;60.63;98597.53;5073029;28;20340;-70
2023/03/15 00:09:14;;;;;;;;;;;;;;;4.60;60.75;98597.72;5074405;28;19915;-70
2023/03/15 00:11:39;;;;;;;;;;;;;;;4.75;60.47;98599.28;5074580;28;19912;-71
2023/03/15 00:14:05;;;;;;;;;;;;;;;4.75;60.82;98597.31;5072786;28;20283;-70
2023/03/15 00:16:31;;;;;;;;;;;;;;;4.63;60.79;98595.16;5073217;28;19958;-70
2023/03/15 00:18:57;;;;;;;;;;;;;;;4.68;60.67;98587.81;5072919;28;19923;-70
2023/03/15 00:21:22;;;;;;;;;;;;;;;4.73;60.86;98590.47;5074142;28;19908;-70
2023/03/15 00:23:47;;;;;;;;;;;;;;;4.71;61.45;98581.66;5073984;28;20310;-70
2023/03/15 00:26:13;;;;;;;;;;;;;;;4.75;61.62;98586.22;5072700;28;19955;-70
2023/03/15 00:28:39;;;;;;;;;;;;;;;4.81;60.96;98584.13;5073448;28;19935;-70
2023/03/15 00:31:05;;;;;;;;;;;;;;;4.82;60.67;98580.22;5070548;28;19995;-70
2023/03/15 00:33:33;;;;;;;;;;;;;;;4.55;60.69;98579.28;5072692;28;20357;-70
2023/03/15 00:36:01;;;;;;;;;;;;;;;4.45;60.75;98574.81;5073946;28;19908;-70
2023/03/15 00:38:26;;;;;;;;;;;;;;;3.76;62.02;98576.75;5073557;28;19909;-70
2023/03/15 00:40:51;;;;;;;;;;;;;;;3.74;62.28;98565.19;5073576;28;19987;-71
2023/03/15 00:43:17;;;;;;;;;;;;;;;3.48;63.28;98562.97;5073601;28;19909;-70
2023/03/15 00:45:44;;;;;;;;;;;;;;;3.08;65.04;98565.47;5072392;28;19956;-70
2023/03/15 00:48:09;;;;;;;;;;;;;;;2.49;66.86;98563.25;5072284;28;19909;-71
2023/03/15 00:50:34;;;;;;;;;;;;;;;2.24;67.71;98560.66;5072298;28;19912;-70
2023/03/15 00:53:00;;;;;;;;;;;;;;;2.48;66.83;98553.34;5072175;28;19912;-70
2023/03/15 00:55:25;;;;;;;;;;;;;;;2.48;66.36;98556.09;5073339;28;19908;-70
2023/03/15 00:57:51;;;;;;;;;;;;;;;2.57;66.56;98548.78;5072249;28;19909;-70
2023/03/15 01:00:23;;;;;;;;;;;;;;;2.27;67.91;98553.69;5067631;28;19920;-70
2023/03/15 01:02:49;;;;;;;;;;;;;;;2.44;67.81;98546.81;5068779;28;19999;-70
2023/03/15 01:05:15;;;;;;;;;;;;;;;2.30;68.84;98552.28;5073321;28;20283;-70
2023/03/15 01:07:40;;;;;;;;;;;;;;;2.33;68.95;98560.78;5071907;28;19919;-70
2023/03/15 01:10:06;;;;;;;;;;;;;;;2.14;69.55;98558.06;5073018;28;19935;-70
2023/03/15 01:12:32;;;;;;;;;;;;;;;2.12;70.21;98551.19;5073040;28;19912;-70
2023/03/15 01:14:58;;;;;;;;;;;;;;;2.21;69.35;98552.16;5071876;28;20360;-71
2023/03/15 01:17:23;;;;;;;;;;;;;;;2.16;69.58;98547.53;5068264;28;19912;-70
2023/03/15 01:19:50;;;;;;;;;;;;;;;2.30;69.25;98542.06;5071622;28;19909;-71
2023/03/15 01:22:15;;;;;;;;;;;;;;;2.23;69.08;98527.84;5071450;28;19998;-70
2023/03/15 01:24:41;;;;;;;;;;;;;;;1.95;69.90;98525.81;5072755;28;19936;-70
2023/03/15 01:27:06;;;;;;;;;;;;;;;2.12;69.42;98529.97;5072849;28;20398;-70
2023/03/15 01:29:31;;;;;;;;;;;;;;;2.13;69.15;98525.25;5071411;28;19908;-70
2023/03/15 01:31:57;;;;;;;;;;;;;;;2.17;69.35;98518.00;5071440;28;19923;-70
2023/03/15 01:34:22;;;;;;;;;;;;;;;2.28;69.11;98513.94;5070563;28;20399;-70
2023/03/15 01:36:53;;;;;;;;;;;;;;;2.17;68.95;98513.31;5071371;28;20058;-70
2023/03/15 01:39:19;;;;;;;;;;;;;;;2.18;69.83;98516.91;5072297;28;19908;-70
2023/03/15 01:41:44;;;;;;;;;;;;;;;2.43;68.19;98523.88;5072210;28;19905;-70
2023/03/15 01:44:14;;;;;;;;;;;;;;;2.43;67.44;98520.31;5071109;28;19908;-70
2023/03/15 01:46:40;;;;;;;;;;;;;;;2.35;67.66;98514.38;5071184;28;19915;-70
2023/03/15 01:49:08;;;;;;;;;;;;;;;2.32;67.87;98517.75;5070989;28;19919;-71
2023/03/15 01:52:00;;;;;;;;;;;;;;;2.52;66.79;98515.72;5077071;28;19977;-70
2023/03/15 01:54:25;;;;;;;;;;;;;;;2.42;67.29;98516.72;5086535;28;19915;-70
2023/03/15 01:57:03;;;;;;;;;;;;;;;2.75;66.85;98518.59;5089060;28;19912;-70
2023/03/15 01:59:37;;;;;;;;;;;;;;;2.91;66.47;98517.19;5069720;28;19978;-70
2023/03/15 02:02:03;;;;;;;;;;;;;;;3.08;65.28;98510.22;5072175;28;20378;-70
2023/03/15 02:04:41;;;;;;;;;;;;;;;3.16;65.14;98506.72;5072048;28;19908;-70
2023/03/15 02:07:07;;;;;;;;;;;;;;;3.29;65.15;98509.78;5071110;28;19991;-70
2023/03/15 02:09:52;;;;;;;;;;;;;;;3.38;64.47;98513.44;5071266;28;19908;-70
2023/03/15 02:12:18;;;;;;;;;;;;;;;3.20;65.50;98509.69;5069539;28;20355;-70
2023/03/15 02:14:44;;;;;;;;;;;;;;;3.16;65.87;98511.44;5072002;28;19920;-70
2023/03/15 02:17:10;;;;;;;;;;;;;;;3.29;65.53;98504.25;5071941;28;19908;-70
2023/03/15 02:19:44;;;;;;;;;;;;;;;3.31;64.88;98507.53;5071930;28;19915;-70
2023/03/15 02:22:15;;;;;;;;;;;;;;;3.43;64.23;98506.97;5071970;28;19915;-70
2023/03/15 02:24:47;;;;;;;;;;;;;;;2.99;65.17;98503.75;5070810;28;19912;-70
2023/03/15 02:27:12;;;;;;;;;;;;;;;3.19;65.23;98499.75;5063932;28;19912;-70
2023/03/15 02:29:38;;;;;;;;;;;;;;;3.32;64.44;98489.81;5050520;28;19915;-70
2023/03/15 02:32:03;;;;;;;;;;;;;;;3.30;65.27;98492.06;5051730;28;19913;-70
2023/03/15 02:34:30;;;;;;;;;;;;;;;3.30;65.00;98492.06;5051703;28;20330;-70
2023/03/15 02:36:56;;;;;;;;;;;;;;;3.30;64.56;98483.78;5050375;28;19915;-70
2023/03/15 02:39:22;;;;;;;;;;;;;;;3.18;65.13;98487.88;5050250;28;19909;-70
2023/03/15 02:41:50;;;;;;;;;;;;;;;3.28;64.01;98486.03;5062066;28;20018;-70
2023/03/15 02:44:32;;;;;;;;;;;;;;;3.26;64.27;98485.50;5071654;28;20298;-70
2023/03/15 02:47:03;;;;;;;;;;;;;;;3.39;63.38;98490.22;5071627;28;20012;-70
2023/03/15 02:49:30;;;;;;;;;;;;;;;3.03;63.78;98480.75;5071600;28;19909;-70
2023/03/15 02:51:55;;;;;;;;;;;;;;;3.02;64.04;98487.41;5071538;28;20376;-70
2023/03/15 02:54:21;;;;;;;;;;;;;;;2.79;64.53;98492.03;5074060;28;19949;-70
2023/03/15 02:56:46;;;;;;;;;;;;;;;2.58;64.43;98480.53;5064839;28;19959;-70
2023/03/15 02:59:11;;;;;;;;;;;;;;;2.90;64.04;98474.13;5055751;28;20438;-70
2023/03/15 03:01:37;;;;;;;;;;;;;;;3.11;63.69;98476.44;5055602;28;19962;-69
2023/03/15 03:04:03;;;;;;;;;;;;;;;3.09;63.60;98482.28;5055579;28;19909;-69
2023/03/15 03:06:28;;;;;;;;;;;;;;;3.14;63.74;98481.34;5054173;28;20383;-70
2023/03/15 03:08:54;;;;;;;;;;;;;;;3.23;63.00;98482.22;5055547;28;19961;-70
2023/03/15 03:11:19;;;;;;;;;;;;;;;2.98;63.01;98480.03;5059035;28;20007;-70
2023/03/15 03:13:44;;;;;;;;;;;;;;;3.00;63.84;98469.47;5074081;28;20049;-70
2023/03/15 03:16:10;;;;;;;;;;;;;;;3.16;63.42;98462.50;5074021;28;19965;-70
2023/03/15 03:18:36;;;;;;;;;;;;;;;3.08;63.36;98457.72;5075322;28;19915;-70
2023/03/15 03:21:02;;;;;;;;;;;;;;;3.27;63.59;98446.50;5073889;28;19908;-70
2023/03/15 03:23:28;;;;;;;;;;;;;;;3.36;63.07;98452.09;5075087;28;19948;-70
2023/03/15 03:25:54;;;;;;;;;;;;;;;3.22;63.73;98447.44;5073028;28;20005;-70
2023/03/15 03:28:24;;;;;;;;;;;;;;;3.29;63.84;98443.44;5075119;28;19915;-70
2023/03/15 03:30:50;;;;;;;;;;;;;;;2.90;65.43;98438.22;5072291;28;19924;-70
2023/03/15 03:33:15;;;;;;;;;;;;;;;2.87;65.70;98436.03;5074971;28;20299;-70
2023/03/15 03:35:41;;;;;;;;;;;;;;;3.06;64.58;98452.47;5074788;28;19909;-70
2023/03/15 03:38:07;;;;;;;;;;;;;;;3.03;64.34;98466.91;5072710;28;19916;-70
2023/03/15 03:40:32;;;;;;;;;;;;;;;2.26;65.41;98477.56;5055039;28;19916;-70
2023/03/15 03:42:58;;;;;;;;;;;;;;;1.99;67.04;98464.50;5054831;28;20321;-69
2023/03/15 03:45:23;;;;;;;;;;;;;;;1.89;68.72;98471.88;5054849;28;19909;-70
2023/03/15 03:47:50;;;;;;;;;;;;;;;1.58;70.99;98477.88;5053933;28;19981;-70
2023/03/15 03:50:16;;;;;;;;;;;;;;;1.67;71.33;98469.72;5054721;28;19995;-70
2023/03/15 03:52:42;;;;;;;;;;;;;;;1.49;71.95;98455.69;5053551;28;20070;-69
2023/03/15 03:55:08;;;;;;;;;;;;;;;1.60;71.76;98453.56;5054677;28;20003;-70
2023/03/15 03:57:33;;;;;;;;;;;;;;;1.84;71.16;98451.81;5054408;28;19947;-70
2023/03/15 03:59:59;;;;;;;;;;;;;;;1.90;70.23;98453.34;5053354;28;19909;-70
2023/03/15 04:02:24;;;;;;;;;;;;;;;2.16;68.88;98458.41;5061982;28;19912;-69
2023/03/15 04:04:49;;;;;;;;;;;;;;;2.22;68.27;98452.50;5072814;28;19916;-70
2023/03/15 04:07:15;;;;;;;;;;;;;;;2.33;67.52;98450.38;5071983;28;19920;-69
2023/03/15 04:09:40;;;;;;;;;;;;;;;2.30;68.38;98442.72;5074406;28;19931;-69
2023/03/15 04:12:06;;;;;;;;;;;;;;;2.39;67.72;98443.63;5074271;28;19916;-70
2023/03/15 04:14:31;;;;;;;;;;;;;;;2.48;67.06;98438.25;5074328;28;19957;-70
2023/03/15 04:16:56;;;;;;;;;;;;;;;2.44;67.09;98437.19;5072916;28;19918;-70
2023/03/15 04:19:22;;;;;;;;;;;;;;;2.42;67.66;98428.41;5073547;28;19977;-70
2023/03/15 04:21:47;;;;;;;;;;;;;;;2.34;67.89;98429.09;5072754;28;19919;-70
2023/03/15 04:24:13;;;;;;;;;;;;;;;2.45;67.29;98425.03;5074235;28;19908;-69
2023/03/15 04:26:38;;;;;;;;;;;;;;;2.60;66.61;98426.66;5073113;28;19915;-70
2023/03/15 04:29:04;;;;;;;;;;;;;;;2.73;65.76;98443.53;5071926;28;20298;-70
2023/03/15 04:31:36;;;;;;;;;;;;;;;2.72;66.31;98433.63;5073924;28;19920;-69
2023/03/15 04:34:02;;;;;;;;;;;;;;;2.71;66.29;98440.25;5072740;28;19915;-69
2023/03/15 04:36:27;;;;;;;;;;;;;;;2.85;66.19;98434.75;5071380;28;20318;-70
2023/03/15 04:39:03;;;;;;;;;;;;;;;2.94;65.69;98435.63;5073819;28;20009;-70
2023/03/15 04:41:28;;;;;;;;;;;;;;;2.98;65.53;98444.13;5072351;28;19924;-70
2023/03/15 04:43:54;;;;;;;;;;;;;;;2.97;65.48;98442.47;5073755;28;20506;-70
2023/03/15 04:46:19;;;;;;;;;;;;;;;2.86;64.91;98442.69;5063736;28;20310;-70
2023/03/15 04:48:44;;;;;;;;;;;;;;;2.72;64.70;98441.91;5060608;28;19913;-70
2023/03/15 04:51:09;;;;;;;;;;;;;;;2.73;65.17;98440.78;5070658;28;19915;-70
2023/03/15 04:53:35;;;;;;;;;;;;;;;2.66;65.87;98449.47;5072109;28;20429;-70
2023/03/15 04:56:00;;;;;;;;;;;;;;;2.29;66.51;98452.09;5073495;28;19991;-70
2023/03/15 04:58:25;;;;;;;;;;;;;;;2.52;66.19;98450.28;5068944;28;19917;-71
2023/03/15 05:00:52;;;;;;;;;;;;;;;2.70;65.63;98456.00;5069314;28;19913;-71
2023/03/15 05:03:18;;;;;;;;;;;;;;;2.67;65.37;98464.91;5060778;28;19913;-70
2023/03/15 05:05:43;;;;;;;;;;;;;;;2.82;65.42;98458.25;5052124;28;19961;-70
2023/03/15 05:08:09;;;;;;;;;;;;;;;2.73;64.93;98463.69;5070479;28;20355;-70
2023/03/15 05:10:34;;;;;;;;;;;;;;;2.71;65.41;98465.91;5073535;28;19908;-71
2023/03/15 05:12:59;;;;;;;;;;;;;;;2.32;66.09;98458.97;5069595;28;19978;-70
2023/03/15 05:15:25;;;;;;;;;;;;;;;2.30;66.49;98453.75;5072038;28;19912;-71
2023/03/15 05:17:53;;;;;;;;;;;;;;;2.36;66.88;98446.22;5071699;28;19908;-73
2023/03/15 05:20:22;;;;;;;;;;;;;;;2.53;66.87;98462.13;5072979;28;19908;-73
2023/03/15 05:22:47;;;;;;;;;;;;;;;2.52;66.46;98460.50;5080802;28;19915;-73
2023/03/15 05:25:14;;;;;;;;;;;;;;;2.36;67.10;98465.53;5082775;28;19915;-73
2023/03/15 05:27:40;;;;;;;;;;;;;;;2.50;67.66;98460.00;5069831;28;19920;-72
2023/03/15 05:30:06;;;;;;;;;;;;;;;2.80;66.25;98460.50;5071736;28;20007;-70
2023/03/15 05:32:33;;;;;;;;;;;;;;;2.95;65.87;98457.44;5071289;28;20020;-71
2023/03/15 05:35:01;;;;;;;;;;;;;;;3.06;65.61;98455.25;5072868;28;19995;-72
2023/03/15 05:37:27;;;;;;;;;;;;;;;3.20;64.85;98457.19;5072695;28;19912;-72
2023/03/15 05:39:52;;;;;;;;;;;;;;;3.12;65.45;98447.66;5072534;28;19986;-73
2023/03/15 05:42:24;;;;;;;;;;;;;;;3.11;65.90;98456.28;5071310;28;20349;-73
2023/03/15 05:44:49;;;;;;;;;;;;;;;3.17;66.36;98442.03;5067004;28;20392;-74
2023/03/15 05:47:15;;;;;;;;;;;;;;;3.33;66.07;98449.97;5065514;28;20015;-73
2023/03/15 05:49:40;;;;;;;;;;;;;;;3.62;65.11;98440.44;5066234;28;20394;-73
2023/03/15 05:52:05;;;;;;;;;;;;;;;3.80;64.66;98449.66;5069947;28;19913;-73
2023/03/15 05:54:31;;;;;;;;;;;;;;;3.95;64.08;98454.00;5069736;28;19919;-72
2023/03/15 05:56:56;;;;;;;;;;;;;;;3.74;65.34;98440.72;5068395;28;19915;-70
2023/03/15 05:59:21;;;;;;;;;;;;;;;3.76;66.33;98440.38;5067138;28;19916;-71
2023/03/15 06:01:46;;;;;;;;;;;;;;;3.77;66.38;98445.59;5060728;28;19965;-70
2023/03/15 06:04:12;;;;;;;;;;;;;;;3.75;66.76;98442.34;5065938;28;19916;-70
2023/03/15 06:06:37;;;;;;;;;;;;;;;3.83;66.99;98439.94;5067597;28;19917;-71
2023/03/15 06:09:02;;;;;;;;;;;;;;;3.99;65.84;98437.59;5067032;28;19912;-70
2023/03/15 06:11:28;;;;;;;;;;;;;;;3.98;66.04;98441.50;5069256;28;19919;-71
2023/03/15 06:13:53;;;;;;;;;;;;;;;4.04;65.80;98443.00;5067139;28;19978;-71
2023/03/15 06:16:18;;;;;;;;;;;;;;;3.97;66.33;98426.84;5058751;28;19916;-71
2023/03/15 06:18:43;;;;;;;;;;;;;;;3.86;67.55;98426.28;5055946;28;19912;-74
2023/03/15 06:21:09;;;;;;;;;;;;;;;3.60;69.62;98420.56;5059985;28;19908;-70
2023/03/15 06:23:34;;;;;;;;;;;;;;;3.70;70.07;98425.84;5061652;28;19916;-71
2023/03/15 06:25:59;;;;;;;;;;;;;;;3.69;70.51;98434.50;5063283;28;19986;-73
2023/03/15 06:28:25;;;;;;;;;;;;;;;3.87;70.27;98436.22;5059551;28;20425;-74
2023/03/15 06:30:50;;;;;;;;;;;;;;;4.00;70.18;98439.22;5055822;28;19912;-72
2023/03/15 06:33:15;;;;;;;;;;;;;;;4.06;69.32;98437.97;5054219;28;20434;-73
2023/03/15 06:35:41;;;;;;;;;;;;;;;4.17;69.93;98441.28;5056427;28;19916;-73
2023/03/15 06:38:06;;;;;;;;;;;;;;;4.43;70.80;98440.59;5060244;28;20410;-71
2023/03/15 06:40:32;;;;;;;;;;;;;;;4.67;69.54;98433.84;5059781;28;20330;-72
2023/03/15 06:42:57;;;;;;;;;;;;;;;4.63;69.50;98436.41;5066636;28;19920;-74
2023/03/15 06:45:22;;;;;;;;;;;;;;;4.71;69.37;98443.16;5067507;28;19942;-73
2023/03/15 06:47:48;;;;;;;;;;;;;;;4.61;70.55;98442.28;5066250;28;20003;-74
2023/03/15 06:50:13;;;;;;;;;;;;;;;4.45;71.01;98447.44;5053367;28;19923;-71
2023/03/15 06:52:38;;;;;;;;;;;;;;;4.40;70.69;98450.34;5066975;28;19923;-73
2023/03/15 06:55:04;;;;;;;;;;;;;;;4.58;71.05;98453.19;5063428;28;20446;-73
2023/03/15 06:57:29;;;;;;;;;;;;;;;4.68;70.39;98449.31;5050602;28;20311;-73
2023/03/15 06:59:54;;;;;;;;;;;;;;;4.88;71.02;98443.19;5061080;28;19944;-72
2023/03/15 07:02:20;;;;;;;;;;;;;;;4.72;70.19;98442.81;5067960;28;20010;-72
2023/03/15 07:04:45;;;;;;;;;;;;;;;4.66;71.20;98463.50;5058366;28;20318;-74
2023/03/15 07:07:11;;;;;;;;;;;;;;;4.77;70.32;98467.63;5055443;28;20441;-74
2023/03/15 07:09:37;;;;;;;;;;;;;;;4.78;70.51;98468.41;5062526;28;20184;-73
2023/03/15 07:12:02;;;;;;;;;;;;;;;4.82;70.25;98461.09;5062418;28;19978;-74
2023/03/15 07:14:27;;;;;;;;;;;;;;;4.92;70.75;98457.22;5069858;28;19922;-75
2023/03/15 07:16:53;;;;;;;;;;;;;;;5.15;69.88;98441.28;5065486;28;20397;-75
2023/03/15 07:19:18;;;;;;;;;;;;;;;5.27;69.85;98429.56;5062943;28;19916;-70
2023/03/15 07:21:43;;;;;;;;;;;;;;;5.38;69.29;98430.03;5058373;28;20003;-74
2023/03/15 07:24:09;;;;;;;;;;;;;;;5.50;69.11;98432.19;5066311;28;19916;-74
2023/03/15 07:26:34;;;;;;;;;;;;;;;5.64;68.40;98423.66;5052932;28;19912;-73
2023/03/15 07:28:59;;;;;;;;;;;;;;;6.06;67.68;98417.59;5063289;28;20356;-75
2023/03/15 07:31:25;;;;;;;;;;;;;;;6.43;66.34;98411.59;5060373;28;19943;-74
2023/03/15 07:33:51;;;;;;;;;;;;;;;6.57;65.16;98406.63;5061873;28;19908;-75
2023/03/15 07:36:16;;;;;;;;;;;;;;;6.66;65.11;98403.78;5063130;28;20322;-75
2023/03/15 07:38:41;;;;;;;;;;;;;;;6.99;64.71;98407.84;5051981;28;19995;-75
2023/03/15 07:41:07;;;;;;;;;;;;;;;6.87;63.66;98414.16;5066930;28;19969;-75
2023/03/15 07:43:32;;;;;;;;;;;;;;;6.83;64.22;98410.44;5070534;28;19909;-75
2023/03/15 07:45:58;;;;;;;;;;;;;;;6.88;64.41;98410.22;5071092;28;20352;-75
2023/03/15 07:48:23;;;;;;;;;;;;;;;6.94;64.13;98416.41;5057414;28;20294;-74
2023/03/15 07:50:49;;;;;;;;;;;;;;;7.21;62.70;98400.34;5070235;28;19917;-75
2023/03/15 07:53:14;;;;;;;;;;;;;;;6.91;63.33;98395.63;5070136;28;20011;-74
2023/03/15 07:55:40;;;;;;;;;;;;;;;6.70;65.27;98392.84;5059504;28;19923;-71
2023/03/15 07:58:05;;;;;;;;;;;;;;;6.72;64.59;98385.78;5060240;28;20400;-75
2023/03/15 08:00:31;;;;;;;;;;;;;;;6.76;63.75;98391.50;5057520;28;20360;-74
2023/03/15 08:02:56;;;;;;;;;;;;;;;6.77;64.37;98390.34;5070589;28;19914;-74
2023/03/15 08:05:21;;;;;;;;;;;;;;;6.70;64.71;98387.28;5072293;28;19997;-74
2023/03/15 08:07:48;;;;;;;;;;;;;;;6.75;63.90;98392.63;5072328;28;19919;-74
2023/03/15 08:10:14;;;;;;;;;;;;;;;6.84;64.61;98375.91;5072147;28;19915;-74
2023/03/15 08:12:41;;;;;;;;;;;;;;;6.95;65.04;98363.25;5062204;28;19916;-74
2023/03/15 08:15:08;;;;;;;;;;;;;;;7.26;64.50;98361.22;5070962;28;19909;-75
2023/03/15 08:17:33;;;;;;;;;;;;;;;7.54;63.13;98355.06;5061209;28;19912;-74
2023/03/15 08:20:03;;;;;;;;;;;;;;;7.67;62.56;98359.53;5057017;28;19931;-74
2023/03/15 08:22:29;;;;;;;;;;;;;;;7.81;62.67;98362.00;5068027;28;19908;-74
2023/03/15 08:24:56;;;;;;;;;;;;;;;7.68;62.54;98361.16;5066943;28;19915;-75
2023/03/15 08:27:21;;;;;;;;;;;;;;;7.81;61.53;98358.41;5055058;28;19912;-75
2023/03/15 08:29:46;;;;;;;;;;;;;;;8.09;61.12;98352.22;5063961;28;19943;-75
2023/03/15 08:32:12;;;;;;;;;;;;;;;8.07;60.61;98354.50;5058662;28;20397;-75
2023/03/15 08:34:37;;;;;;;;;;;;;;;8.26;59.58;98356.75;5057942;28;19970;-74
2023/03/15 08:37:03;;;;;;;;;;;;;;;8.25;59.69;98353.16;5066185;28;20433;-75
2023/03/15 08:39:28;;;;;;;;;;;;;;;8.49;59.97;98348.75;5065988;28;19928;-74
2023/03/15 08:41:53;;;;;;;;;;;;;;;8.80;58.93;98343.75;5071543;28;20011;-77
2023/03/15 08:44:19;;;;;;;;;;;;;;;8.90;57.19;98337.72;5071101;28;19962;-76
2023/03/15 08:46:44;;;;;;;;;;;;;;;8.89;57.66;98340.84;5072677;28;19908;-75
2023/03/15 08:49:10;;;;;;;;;;;;;;;8.94;57.15;98346.19;5069365;28;19912;-74
2023/03/15 08:51:35;;;;;;;;;;;;;;;8.97;56.57;98337.91;5062279;28;19909;-74
2023/03/15 08:54:02;;;;;;;;;;;;;;;9.20;56.39;98337.38;5057185;28;20375;-74
2023/03/15 08:56:28;;;;;;;;;;;;;;;9.58;55.65;98329.69;5068206;28;19912;-75
2023/03/15 08:58:53;;;;;;;;;;;;;;;9.91;54.34;98334.19;5061757;28;19912;-74
2023/03/15 09:01:18;;;;;;;;;;;;;;;9.59;52.79;98310.94;5069352;28;19962;-75
2023/03/15 09:03:44;;;;;;;;;;;;;;;9.26;55.40;98327.63;5073476;28;20397;-74
2023/03/15 09:06:09;;;;;;;;;;;;;;;9.32;54.38;98321.78;5072958;28;19915;-74
2023/03/15 09:08:35;;;;;;;;;;;;;;;9.54;55.36;98326.81;5066303;28;19912;-75
2023/03/15 09:11:00;;;;;;;;;;;;;;;9.73;54.81;98316.94;5064836;28;19917;-76
2023/03/15 09:13:26;;;;;;;;;;;;;;;9.82;52.94;98313.97;5061350;28;19960;-76
2023/03/15 09:15:52;;;;;;;;;;;;;;;9.79;52.88;98314.72;5058167;28;19915;-76
2023/03/15 09:18:18;;;;;;;;;;;;;;;9.77;51.93;98312.25;5066253;28;20366;-75
2023/03/15 09:20:43;;;;;;;;;;;;;;;9.91;50.60;98317.41;5057776;28;20239;-76
2023/03/15 09:23:09;;;;;;;;;;;;;;;9.72;49.84;98320.91;5058926;28;19912;-76
2023/03/15 09:25:35;;;;;;;;;;;;;;;9.90;51.12;98323.34;5066462;28;19940;-76
2023/03/15 09:28:03;;;;;;;;;;;;;;;10.28;52.65;98323.94;5065456;28;19956;-76
2023/03/15 09:30:28;;;;;;;;;;;;;;;10.58;51.45;98320.66;5081180;28;19916;-75
2023/03/15 09:32:53;;;;;;;;;;;;;;;10.37;52.42;98314.19;5062741;28;19936;-75
2023/03/15 09:35:19;;;;;;;;;;;;;;;10.29;53.60;98303.97;5061027;28;20006;-76
2023/03/15 09:37:45;;;;;;;;;;;;;;;10.33;50.49;98296.50;5079795;28;19919;-76
2023/03/15 09:40:14;;;;;;;;;;;;;;;9.52;51.83;98294.81;5065333;28;20310;-76
2023/03/15 09:43:00;;;;;;;;;;;;;;;9.57;51.42;98299.34;5057273;28;20394;-75
2023/03/15 09:45:25;;;;;;;;;;;;;;;9.54;52.22;98292.50;5058438;28;19970;-76
2023/03/15 09:48:09;;;;;;;;;;;;;;;9.97;50.79;98287.25;5069328;28;20327;-76
2023/03/15 09:50:43;;;;;;;;;;;;;;;10.56;51.44;98290.28;5060525;28;19920;-76
2023/03/15 09:53:16;;;;;;;;;;;;;;;10.38;50.01;98289.84;5057751;28;19917;-73
2023/03/15 09:55:42;;;;;;;;;;;;;;;10.33;49.82;98281.72;5069447;28;19916;-80
2023/03/15 09:58:34;;;;;;;;;;;;;;;9.98;51.04;98286.88;5057451;28;19919;-76
2023/03/15 10:01:05;;;;;;;;;;;;;;;10.57;50.11;98291.91;5057838;28;19951;-83
2023/03/15 10:03:30;;;;;;;;;;;;;;;11.26;48.60;98293.38;5056451;28;19913;-79
2023/03/15 10:05:57;;;;;;;;;;;;;;;11.48;47.08;98291.03;5055554;28;20403;-79
2023/03/15 10:08:23;;;;;;;;;;;;;;;11.36;47.65;98295.59;5052230;28;19913;-76
2023/03/15 10:11:07;;;;;;;;;;;;;;;11.74;48.90;98289.50;5069685;28;20301;-76
2023/03/15 10:13:48;;;;;;;;;;;;;;;11.69;45.94;98281.41;5048545;28;20385;-74
2023/03/15 10:16:17;;;;;;;;;;;;;;;11.79;45.97;98272.38;5059718;28;19970;-81
2023/03/15 10:18:56;;;;;;;;;;;;;;;12.06;45.73;98272.47;5068993;28;19998;-78
2023/03/15 10:21:36;;;;;;;;;;;;;;;12.15;44.94;98275.03;5063224;28;20291;-76
2023/03/15 10:24:04;;;;;;;;;;;;;;;11.72;45.44;98269.47;5066199;28;20061;-75
2023/03/15 10:26:35;;;;;;;;;;;;;;;11.01;46.55;98267.66;5068335;28;19916;-75
2023/03/15 10:29:02;;;;;;;;;;;;;;;11.14;47.04;98266.34;5064205;28;20009;-84
2023/03/15 10:31:30;;;;;;;;;;;;;;;11.15;48.29;98264.38;5058928;28;19920;-84
2023/03/15 10:33:56;;;;;;;;;;;;;;;10.89;47.91;98252.66;5063915;28;19947;-74
2023/03/15 10:36:22;;;;;;;;;;;;;;;10.85;48.62;98256.53;5060161;28;19990;-74
2023/03/15 10:38:49;;;;;;;;;;;;;;;11.35;46.17;98252.00;5061476;28;19917;-74
2023/03/15 10:41:47;;;;;;;;;;;;;;;10.55;46.67;98254.31;5054382;28;20256;-74
2023/03/15 10:44:38;;;;;;;;;;;;;;;11.61;46.22;98249.66;5022548;28;19923;-74
2023/03/15 10:47:06;;;;;;;;;;;;;;;11.83;46.08;98236.03;5074010;28;20363;-75
2023/03/15 10:49:38;;;;;;;;;;;;;;;11.30;46.04;98238.28;5066765;28;19913;-74
2023/03/15 10:52:04;;;;;;;;;;;;;;;11.20;46.75;98238.88;5059063;28;19985;-78
2023/03/15 10:54:33;;;;;;;;;;;;;;;11.34;45.56;98244.78;5065708;28;20349;-80
2023/03/15 10:57:01;;;;;;;;;;;;;;;11.04;46.28;98236.16;5060161;28;19949;-79
2023/03/15 10:59:28;;;;;;;;;;;;;;;10.76;48.05;98238.00;5061236;28;19999;-80
2023/03/15 11:02:13;;;;;;;;;;;;;;;10.91;47.56;98225.09;5067251;28;19939;-74
2023/03/15 11:04:43;;;;;;;;;;;;;;;10.42;49.41;98214.47;5061151;28;20007;-73
2023/03/15 11:07:09;;;;;;;;;;;;;;;11.22;47.29;98217.75;5063504;28;20386;-73
2023/03/15 11:09:50;;;;;;;;;;;;;;;9.96;50.54;98227.75;5049160;28;19961;-73
2023/03/15 11:12:22;;;;;;;;;;;;;;;10.56;48.44;98227.97;5063366;28;19927;-71
2023/03/15 11:14:55;;;;;;;;;;;;;;;10.95;48.45;98223.22;5071118;28;19966;-74
2023/03/15 11:17:25;;;;;;;;;;;;;;;11.04;47.86;98234.19;5068038;28;19913;-75
2023/03/15 11:19:54;;;;;;;;;;;;;;;11.28;46.59;98229.44;5054729;28;20379;-73
2023/03/15 11:22:20;;;;;;;;;;;;;;;11.01;46.97;98222.91;5066196;28;19917;-73
2023/03/15 11:24:45;;;;;;;;;;;;;;;11.15;47.92;98214.78;5078152;28;20054;-74
2023/03/15 11:27:12;;;;;;;;;;;;;;;11.08;48.22;98214.66;5070366;28;19923;-73
2023/03/15 11:29:39;;;;;;;;;;;;;;;11.08;47.75;98214.66;5071098;28;19919;-74
2023/03/15 11:32:31;;;;;;;;;;;;;;;11.38;46.89;98220.44;5070908;28;20467;-77
2023/03/15 11:35:11;;;;;;;;;;;;;;;11.27;47.24;98219.44;5062638;28;19972;-75
2023/03/15 11:37:49;;;;;;;;;;;;;;;11.30;46.27;98224.28;5079581;28;19951;-75
2023/03/15 11:40:15;;;;;;;;;;;;;;;11.00;46.75;98218.50;5072630;28;19989;-75
2023/03/15 11:42:56;;;;;;;;;;;;;;;11.21;46.25;98218.09;5073828;28;19912;-75
2023/03/15 11:45:27;;;;;;;;;;;;;;;11.40;46.26;98213.66;5074641;28;19920;-75
2023/03/15 11:47:55;;;;;;;;;;;;;;;10.86;45.89;98216.19;5071737;28;19908;-75
2023/03/15 11:50:21;;;;;;;;;;;;;;;10.76;47.53;98210.03;5071081;28;19916;-74
2023/03/15 11:52:47;;;;;;;;;;;;;;;10.86;47.35;98208.63;5072663;28;19923;-75
2023/03/15 11:55:17;;;;;;;;;;;;;;;10.20;48.98;98195.19;5068995;28;20087;-75
2023/03/15 11:57:44;;;;;;;;;;;;;;;10.85;48.52;98192.19;5072311;28;20026;-74
2023/03/15 12:00:20;;;;;;;;;;;;;;;10.71;49.32;98185.13;5073601;28;19919;-74
2023/03/15 12:02:48;;;;;;;;;;;;;;;10.76;48.05;98182.06;5072715;28;19958;-75
2023/03/15 12:05:33;;;;;;;;;;;;;;;11.34;47.19;98180.41;5069078;28;19963;-74
2023/03/15 12:08:14;;;;;;;;;;;;;;;11.55;46.89;98178.34;5069783;28;19959;-72
2023/03/15 12:10:45;;;;;;;;;;;;;;;11.44;46.47;98172.53;5070370;28;19912;-75
2023/03/15 12:13:18;;;;;;;;;;;;;;;10.93;47.08;98166.00;5072380;28;19944;-75
2023/03/15 12:15:45;;;;;;;;;;;;;;;11.23;47.41;98160.59;5072228;28;19915;-75
2023/03/15 12:18:15;;;;;;;;;;;;;;;11.24;47.21;98155.81;5070721;28;19919;-75
2023/03/15 12:20:41;;;;;;;;;;;;;;;11.65;47.58;98158.13;5072153;28;19934;-75
2023/03/15 12:23:19;;;;;;;;;;;;;;;11.82;46.41;98162.38;5072184;28;20310;-76
2023/03/15 12:25:54;;;;;;;;;;;;;;;11.88;45.59;98160.06;5061918;28;20394;-76
2023/03/15 12:28:29;;;;;;;;;;;;;;;11.98;45.72;98159.44;5062449;28;19965;-76
2023/03/15 12:30:55;;;;;;;;;;;;;;;11.78;45.36;98151.13;5072969;28;19963;-76
2023/03/15 12:33:22;;;;;;;;;;;;;;;11.92;44.91;98152.53;5069156;28;19920;-76
2023/03/15 12:35:48;;;;;;;;;;;;;;;12.01;44.88;98152.28;5070047;28;19917;-76
2023/03/15 12:38:22;;;;;;;;;;;;;;;11.76;45.07;98147.09;5060893;28;20262;-76
2023/03/15 12:40:52;;;;;;;;;;;;;;;11.08;46.25;98145.50;5066587;28;20058;-72
2023/03/15 12:43:34;;;;;;;;;;;;;;;10.73;48.02;98152.00;5067706;28;20054;-73
2023/03/15 12:46:00;;;;;;;;;;;;;;;11.30;47.45;98137.50;5059393;28;19986;-73
2023/03/15 12:48:26;;;;;;;;;;;;;;;11.01;47.66;98134.19;5059670;28;19917;-73
2023/03/15 12:50:52;;;;;;;;;;;;;;;11.23;46.44;98127.00;5066994;28;20306;-74
2023/03/15 12:53:21;;;;;;;;;;;;;;;11.11;47.25;98129.19;5069065;28;19920;-73
2023/03/15 12:55:47;;;;;;;;;;;;;;;11.01;47.03;98150.97;5069427;28;19956;-69
2023/03/15 12:58:14;;;;;;;;;;;;;;;11.24;46.47;98148.19;5068354;28;19963;-69